Portada
METAR-TAF:

METAR-TAF

Aeropuertos :

Orange, Francia

latitud: 44-08N, longitud: 004-50E, altitud: 60 m

Observación

El informe se hizo hace 22 minutos, a las 23:30 UTC
Viento calma
Temperatura 6°C
Humedad 65%
Presión 1019 hPa
Visibilidad 10 km o más
sin nubes por debajo de 1500 m y sin presencia de cumulonimbus.

METAR: LFMO 312330Z AUTO 00000KT CAVOK 06/M00 Q1019 NOSIG

Hora: 01:52 (23:52 UTC)

Pronóstico

El informe se hizo hace 3 horas y 52 minutos, a las 20:00 UTC
Pronóstico válido del 31 a las 21 UTC al 01 a las 21 UTC
Viento 8 kt del oeste-noroeste
Visibilidad 10 km o más
sin nubes por debajo de 1500 m y sin presencia de cumulonimbus.
Temporalmente
del 01 a las 12 UTC al 01 a las 18 UTC
Viento 12 kt del sur

TAF: LFMO 312000Z 3121/0121 30008KT CAVOK TEMPO 0112/0118 18012KT

Observaciones y pronósticos meteorológicos de más de 4000 aeropuertos (mensajes METAR y TAF).

Los puntos amarillos y rojos representan las estaciones disponibles.

Ponga el ratón en el punto deseado para ver el nombre de la estación.

Haga clic para ver las observaciones y los pronósticos meteorológicos.

Para cambiar el mapa : haga clic en los botones verdes con una cruz de color negro para hacer un zoom, en el botón verde con un guión para alejar o en las flechas verdes para mapas adyacentes.


METAR-TAF: